sensor_id;sensor_type;location;lat;lon;timestamp;pressure;altitude;pressure_sealevel;temperature;humidity
55675;BME280;41562;44.330;23.802;2023-03-01T00:02:03;101321.81;;;4.28;100.00
55675;BME280;41562;44.330;23.802;2023-03-01T00:04:38;101325.06;;;4.30;100.00
55675;BME280;41562;44.330;23.802;2023-03-01T00:07:05;101327.50;;;4.32;100.00
55675;BME280;41562;44.330;23.802;2023-03-01T00:09:33;101333.59;;;4.26;100.00
55675;BME280;41562;44.330;23.802;2023-03-01T00:12:00;101327.13;;;4.41;100.00
55675;BME280;41562;44.330;23.802;2023-03-01T00:14:28;101327.94;;;4.35;100.00
55675;BME280;41562;44.330;23.802;2023-03-01T00:16:55;101321.00;;;4.28;100.00
55675;BME280;41562;44.330;23.802;2023-03-01T00:19:22;101310.41;;;4.28;100.00
55675;BME280;41562;44.330;23.802;2023-03-01T00:21:52;101311.00;;;4.36;100.00
55675;BME280;41562;44.330;23.802;2023-03-01T00:24:19;101310.41;;;4.34;100.00
55675;BME280;41562;44.330;23.802;2023-03-01T00:26:46;101308.34;;;4.50;100.00
55675;BME280;41562;44.330;23.802;2023-03-01T00:29:13;101310.59;;;4.53;100.00
55675;BME280;41562;44.330;23.802;2023-03-01T00:31:41;101309.78;;;4.45;100.00
55675;BME280;41562;44.330;23.802;2023-03-01T00:34:09;101303.06;;;4.36;100.00
55675;BME280;41562;44.330;23.802;2023-03-01T00:36:38;101296.53;;;4.26;100.00
55675;BME280;41562;44.330;23.802;2023-03-01T00:39:09;101295.13;;;4.36;100.00
55675;BME280;41562;44.330;23.802;2023-03-01T00:41:37;101294.09;;;4.37;100.00
55675;BME280;41562;44.330;23.802;2023-03-01T00:44:04;101296.16;;;4.22;100.00
55675;BME280;41562;44.330;23.802;2023-03-01T00:46:32;101294.31;;;4.23;100.00
55675;BME280;41562;44.330;23.802;2023-03-01T00:48:59;101281.28;;;4.15;100.00
55675;BME280;41562;44.330;23.802;2023-03-01T00:51:27;101285.13;;;4.19;100.00
55675;BME280;41562;44.330;23.802;2023-03-01T00:53:56;101277.41;;;4.30;100.00
55675;BME280;41562;44.330;23.802;2023-03-01T00:56:31;101270.50;;;4.16;100.00
55675;BME280;41562;44.330;23.802;2023-03-01T00:58:59;101273.97;;;4.10;100.00
55675;BME280;41562;44.330;23.802;2023-03-01T01:01:29;101272.34;;;4.22;100.00
55675;BME280;41562;44.330;23.802;2023-03-01T01:04:03;101265.22;;;4.29;100.00
55675;BME280;41562;44.330;23.802;2023-03-01T01:06:32;101258.28;;;4.28;100.00
55675;BME280;41562;44.330;23.802;2023-03-01T01:09:00;101250.53;;;4.40;100.00
55675;BME280;41562;44.330;23.802;2023-03-01T01:11:32;101245.44;;;4.38;100.00
55675;BME280;41562;44.330;23.802;2023-03-01T01:13:59;101247.50;;;4.30;100.00
55675;BME280;41562;44.330;23.802;2023-03-01T01:16:28;101236.69;;;4.31;100.00
55675;BME280;41562;44.330;23.802;2023-03-01T01:18:59;101231.81;;;4.35;100.00
55675;BME280;41562;44.330;23.802;2023-03-01T01:21:34;101231.81;;;4.28;100.00
55675;BME280;41562;44.330;23.802;2023-03-01T01:24:19;101229.53;;;4.38;100.00
55675;BME280;41562;44.330;23.802;2023-03-01T01:26:47;101225.69;;;4.41;100.00
55675;BME280;41562;44.330;23.802;2023-03-01T01:29:14;101234.00;;;4.44;100.00
55675;BME280;41562;44.330;23.802;2023-03-01T01:31:42;101227.31;;;4.42;100.00
55675;BME280;41562;44.330;23.802;2023-03-01T01:34:22;101221.38;;;4.60;100.00
55675;BME280;41562;44.330;23.802;2023-03-01T01:36:52;101224.06;;;4.40;100.00
55675;BME280;41562;44.330;23.802;2023-03-01T01:39:20;101217.56;;;4.36;100.00
55675;BME280;41562;44.330;23.802;2023-03-01T01:41:48;101218.31;;;4.50;100.00
55675;BME280;41562;44.330;23.802;2023-03-01T01:46:49;101214.91;;;4.42;100.00
55675;BME280;41562;44.330;23.802;2023-03-01T01:49:31;101217.53;;;4.42;100.00
55675;BME280;41562;44.330;23.802;2023-03-01T01:57:29;101216.94;;;4.27;100.00
55675;BME280;41562;44.330;23.802;2023-03-01T02:00:21;101216.75;;;4.35;100.00
55675;BME280;41562;44.330;23.802;2023-03-01T02:02:57;101221.59;;;4.32;100.00
55675;BME280;41562;44.330;23.802;2023-03-01T02:05:49;101217.31;;;4.37;100.00
55675;BME280;41562;44.330;23.802;2023-03-01T02:08:23;101209.78;;;4.54;100.00
55675;BME280;41562;44.330;23.802;2023-03-01T02:10:52;101219.59;;;4.27;100.00
55675;BME280;41562;44.330;23.802;2023-03-01T02:13:25;101218.75;;;4.40;100.00
55675;BME280;41562;44.330;23.802;2023-03-01T02:15:54;101218.56;;;4.28;100.00
55675;BME280;41562;44.330;23.802;2023-03-01T02:18:23;101209.81;;;4.21;100.00
55675;BME280;41562;44.330;23.802;2023-03-01T02:21:05;101211.22;;;4.30;100.00
55675;BME280;41562;44.330;23.802;2023-03-01T02:23:36;101202.06;;;4.39;100.00
55675;BME280;41562;44.330;23.802;2023-03-01T02:26:10;101202.88;;;4.33;100.00
55675;BME280;41562;44.330;23.802;2023-03-01T02:28:40;101201.88;;;4.34;100.00
55675;BME280;41562;44.330;23.802;2023-03-01T02:31:19;101189.63;;;4.47;100.00
55675;BME280;41562;44.330;23.802;2023-03-01T02:33:55;101197.16;;;4.43;100.00
55675;BME280;41562;44.330;23.802;2023-03-01T02:36:35;101193.09;;;4.47;100.00
55675;BME280;41562;44.330;23.802;2023-03-01T02:39:05;101195.34;;;4.30;100.00
55675;BME280;41562;44.330;23.802;2023-03-01T02:41:50;101195.94;;;4.39;100.00
55675;BME280;41562;44.330;23.802;2023-03-01T02:44:35;101195.13;;;4.45;100.00
55675;BME280;41562;44.330;23.802;2023-03-01T02:47:10;101199.81;;;4.36;100.00
55675;BME280;41562;44.330;23.802;2023-03-01T02:49:37;101192.72;;;4.17;100.00
55675;BME280;41562;44.330;23.802;2023-03-01T02:55:08;101203.25;;;4.37;100.00
55675;BME280;41562;44.330;23.802;2023-03-01T02:57:38;101214.69;;;4.24;100.00
55675;BME280;41562;44.330;23.802;2023-03-01T03:00:10;101206.16;;;4.29;100.00
55675;BME280;41562;44.330;23.802;2023-03-01T03:02:54;101210.59;;;4.48;100.00
55675;BME280;41562;44.330;23.802;2023-03-01T03:05:39;101212.44;;;4.34;100.00
55675;BME280;41562;44.330;23.802;2023-03-01T03:08:08;101216.75;;;4.22;100.00
55675;BME280;41562;44.330;23.802;2023-03-01T03:10:40;101219.97;;;4.31;100.00
55675;BME280;41562;44.330;23.802;2023-03-01T03:13:13;101226.28;;;4.43;100.00
55675;BME280;41562;44.330;23.802;2023-03-01T03:15:42;101216.13;;;4.33;100.00
55675;BME280;41562;44.330;23.802;2023-03-01T03:18:13;101214.28;;;4.34;100.00
55675;BME280;41562;44.330;23.802;2023-03-01T03:20:42;101213.00;;;4.56;100.00
55675;BME280;41562;44.330;23.802;2023-03-01T03:23:22;101210.59;;;4.48;100.00
55675;BME280;41562;44.330;23.802;2023-03-01T03:25:50;101207.97;;;4.48;100.00
55675;BME280;41562;44.330;23.802;2023-03-01T03:28:17;101211.22;;;4.37;100.00
55675;BME280;41562;44.330;23.802;2023-03-01T03:30:44;101203.69;;;4.40;100.00
55675;BME280;41562;44.330;23.802;2023-03-01T03:33:12;101199.59;;;4.44;100.00
55675;BME280;41562;44.330;23.802;2023-03-01T03:35:46;101204.06;;;4.51;100.00
55675;BME280;41562;44.330;23.802;2023-03-01T03:38:17;101200.84;;;4.29;100.00
55675;BME280;41562;44.330;23.802;2023-03-01T03:40:50;101204.50;;;4.34;100.00
55675;BME280;41562;44.330;23.802;2023-03-01T03:43:37;101210.38;;;4.43;100.00
55675;BME280;41562;44.330;23.802;2023-03-01T03:46:04;101209.00;;;4.27;100.00
55675;BME280;41562;44.330;23.802;2023-03-01T03:48:50;101206.97;;;4.36;100.00
55675;BME280;41562;44.330;23.802;2023-03-01T03:51:33;101205.72;;;4.45;100.00
55675;BME280;41562;44.330;23.802;2023-03-01T03:54:06;101204.72;;;4.26;100.00
55675;BME280;41562;44.330;23.802;2023-03-01T03:56:36;101207.75;;;4.43;100.00
55675;BME280;41562;44.330;23.802;2023-03-01T03:59:10;101210.00;;;4.46;100.00
55675;BME280;41562;44.330;23.802;2023-03-01T04:01:42;101201.25;;;4.32;100.00
55675;BME280;41562;44.330;23.802;2023-03-01T04:04:09;101199.19;;;4.48;100.00
55675;BME280;41562;44.330;23.802;2023-03-01T04:06:37;101198.59;;;4.32;100.00
55675;BME280;41562;44.330;23.802;2023-03-01T04:09:04;101204.31;;;4.23;100.00
55675;BME280;41562;44.330;23.802;2023-03-01T04:11:36;101209.81;;;4.21;100.00
55675;BME280;41562;44.330;23.802;2023-03-01T04:14:03;101201.88;;;4.28;100.00
55675;BME280;41562;44.330;23.802;2023-03-01T04:16:33;101198.78;;;4.37;100.00
55675;BME280;41562;44.330;23.802;2023-03-01T04:19:16;101202.28;;;4.18;100.00
55675;BME280;41562;44.330;23.802;2023-03-01T04:21:43;101206.34;;;4.40;100.00
55675;BME280;41562;44.330;23.802;2023-03-01T04:24:11;101200.84;;;4.42;100.00
55675;BME280;41562;44.330;23.802;2023-03-01T04:26:38;101206.53;;;4.45;100.00
55675;BME280;41562;44.330;23.802;2023-03-01T04:29:05;101203.69;;;4.34;100.00
55675;BME280;41562;44.330;23.802;2023-03-01T04:31:32;101208.56;;;4.30;100.00
55675;BME280;41562;44.330;23.802;2023-03-01T04:34:00;101206.53;;;4.45;100.00
55675;BME280;41562;44.330;23.802;2023-03-01T04:36:30;101206.75;;;4.18;100.00
55675;BME280;41562;44.330;23.802;2023-03-01T04:39:00;101201.25;;;6.47;100.00
55675;BME280;41562;44.330;23.802;2023-03-01T04:41:28;101191.75;;;6.76;100.00
55675;BME280;41562;44.330;23.802;2023-03-01T04:43:56;101197.09;;;7.06;98.87
55675;BME280;41562;44.330;23.802;2023-03-01T04:46:30;101197.53;;;5.17;100.00
55675;BME280;41562;44.330;23.802;2023-03-01T04:48:58;101195.38;;;4.95;100.00
55675;BME280;41562;44.330;23.802;2023-03-01T04:51:25;101193.59;;;4.75;100.00
55675;BME280;41562;44.330;23.802;2023-03-01T04:54:05;101199.00;;;4.42;100.00
55675;BME280;41562;44.330;23.802;2023-03-01T04:56:32;101190.28;;;4.22;100.00
55675;BME280;41562;44.330;23.802;2023-03-01T04:59:01;101192.50;;;4.12;100.00
55675;BME280;41562;44.330;23.802;2023-03-01T05:01:29;101189.03;;;4.12;100.00
55675;BME280;41562;44.330;23.802;2023-03-01T05:04:02;101190.28;;;4.22;100.00
55675;BME280;41562;44.330;23.802;2023-03-01T05:06:30;101192.38;;;5.85;100.00
55675;BME280;41562;44.330;23.802;2023-03-01T05:08:58;101200.94;;;7.10;100.00
55675;BME280;41562;44.330;23.802;2023-03-01T05:11:27;101198.16;;;5.76;100.00
55675;BME280;41562;44.330;23.802;2023-03-01T05:13:57;101197.06;;;4.76;100.00
55675;BME280;41562;44.330;23.802;2023-03-01T05:16:24;101200.38;;;4.65;100.00
55675;BME280;41562;44.330;23.802;2023-03-01T05:18:52;101199.19;;;4.48;100.00
55675;BME280;41562;44.330;23.802;2023-03-01T05:21:19;101202.06;;;4.26;100.00
55675;BME280;41562;44.330;23.802;2023-03-01T05:23:46;101198.00;;;4.24;100.00
55675;BME280;41562;44.330;23.802;2023-03-01T05:26:19;101199.63;;;4.05;100.00
55675;BME280;41562;44.330;23.802;2023-03-01T05:29:02;101203.72;;;4.14;100.00
55675;BME280;41562;44.330;23.802;2023-03-01T05:31:37;101201.03;;;4.40;100.00
55675;BME280;41562;44.330;23.802;2023-03-01T05:34:09;101196.97;;;4.25;100.00
55675;BME280;41562;44.330;23.802;2023-03-01T05:36:43;101201.69;;;4.16;100.00
55675;BME280;41562;44.330;23.802;2023-03-01T05:39:10;101207.38;;;4.26;100.00
55675;BME280;41562;44.330;23.802;2023-03-01T05:41:42;101205.72;;;4.25;100.00
55675;BME280;41562;44.330;23.802;2023-03-01T05:44:10;101208.56;;;4.37;100.00
55675;BME280;41562;44.330;23.802;2023-03-01T05:46:37;101211.84;;;4.32;100.00
55675;BME280;41562;44.330;23.802;2023-03-01T05:49:12;101210.84;;;4.27;100.00
55675;BME280;41562;44.330;23.802;2023-03-01T05:51:40;101219.41;;;4.09;100.00
55675;BME280;41562;44.330;23.802;2023-03-01T05:54:09;101236.69;;;4.12;100.00
55675;BME280;41562;44.330;23.802;2023-03-01T05:56:37;101235.66;;;4.06;100.00
55675;BME280;41562;44.330;23.802;2023-03-01T05:59:05;101219.59;;;4.14;100.00
55675;BME280;41562;44.330;23.802;2023-03-01T06:01:33;101230.19;;;4.14;100.00
55675;BME280;41562;44.330;23.802;2023-03-01T06:04:02;101224.50;;;4.17;100.00
55675;BME280;41562;44.330;23.802;2023-03-01T06:06:36;101234.66;;;4.14;100.00
55675;BME280;41562;44.330;23.802;2023-03-01T06:09:05;101236.91;;;4.23;100.00
55675;BME280;41562;44.330;23.802;2023-03-01T06:11:34;101236.50;;;4.13;100.00
55675;BME280;41562;44.330;23.802;2023-03-01T06:14:03;101238.75;;;4.10;100.00
55675;BME280;41562;44.330;23.802;2023-03-01T06:16:32;101241.59;;;4.21;100.00
55675;BME280;41562;44.330;23.802;2023-03-01T06:19:05;101244.22;;;4.21;100.00
55675;BME280;41562;44.330;23.802;2023-03-01T06:21:40;101231.19;;;4.20;100.00
55675;BME280;41562;44.330;23.802;2023-03-01T06:24:08;101239.56;;;3.97;100.00
55675;BME280;41562;44.330;23.802;2023-03-01T06:26:36;101231.00;;;4.15;100.00
55675;BME280;41562;44.330;23.802;2023-03-01T06:29:04;101226.91;;;4.25;100.00
55675;BME280;41562;44.330;23.802;2023-03-01T06:31:32;101237.31;;;4.07;100.00
55675;BME280;41562;44.330;23.802;2023-03-01T06:34:00;101225.50;;;4.03;100.00
55675;BME280;41562;44.330;23.802;2023-03-01T06:36:28;101223.06;;;4.15;100.00
55675;BME280;41562;44.330;23.802;2023-03-01T06:38:58;101223.69;;;4.23;100.00
55675;BME280;41562;44.330;23.802;2023-03-01T06:41:25;101222.63;;;4.24;100.00
55675;BME280;41562;44.330;23.802;2023-03-01T06:43:53;101227.72;;;4.13;100.00
55675;BME280;41562;44.330;23.802;2023-03-01T06:46:22;101236.69;;;4.12;100.00
55675;BME280;41562;44.330;23.802;2023-03-01T06:48:53;101222.84;;;4.16;100.00
55675;BME280;41562;44.330;23.802;2023-03-01T06:51:20;101223.69;;;4.17;100.00
55675;BME280;41562;44.330;23.802;2023-03-01T06:53:47;101222.03;;;4.16;100.00
55675;BME280;41562;44.330;23.802;2023-03-01T06:56:14;101220.38;;;4.41;100.00
55675;BME280;41562;44.330;23.802;2023-03-01T06:58:43;101222.22;;;4.27;100.00
55675;BME280;41562;44.330;23.802;2023-03-01T07:01:10;101231.56;;;4.36;100.00
55675;BME280;41562;44.330;23.802;2023-03-01T07:03:37;101235.47;;;4.40;100.00
55675;BME280;41562;44.330;23.802;2023-03-01T07:06:12;101229.16;;;4.28;100.00
55675;BME280;41562;44.330;23.802;2023-03-01T07:08:39;101236.84;;;4.50;100.00
55675;BME280;41562;44.330;23.802;2023-03-01T07:11:07;101229.16;;;4.41;100.00
55675;BME280;41562;44.330;23.802;2023-03-01T07:13:35;101233.00;;;4.39;100.00
55675;BME280;41562;44.330;23.802;2023-03-01T07:16:08;101241.13;;;4.51;100.00
55675;BME280;41562;44.330;23.802;2023-03-01T07:18:35;101234.44;;;4.35;100.00
55675;BME280;41562;44.330;23.802;2023-03-01T07:21:06;101233.00;;;4.39;100.00
55675;BME280;41562;44.330;23.802;2023-03-01T07:23:34;101238.94;;;4.34;100.00
55675;BME280;41562;44.330;23.802;2023-03-01T07:26:01;101234.66;;;4.33;100.00
55675;BME280;41562;44.330;23.802;2023-03-01T07:28:33;101236.06;;;4.42;100.00
55675;BME280;41562;44.330;23.802;2023-03-01T07:31:06;101232.19;;;4.45;100.00
55675;BME280;41562;44.330;23.802;2023-03-01T07:33:33;101233.44;;;4.42;100.00
55675;BME280;41562;44.330;23.802;2023-03-01T07:36:02;101227.53;;;4.34;100.00
55675;BME280;41562;44.330;23.802;2023-03-01T07:38:30;101228.31;;;4.54;100.00
55675;BME280;41562;44.330;23.802;2023-03-01T07:41:00;101238.50;;;4.37;100.00
55675;BME280;41562;44.330;23.802;2023-03-01T07:43:31;101239.13;;;4.39;100.00
55675;BME280;41562;44.330;23.802;2023-03-01T07:46:04;101244.03;;;4.42;100.00
55675;BME280;41562;44.330;23.802;2023-03-01T07:48:35;101246.66;;;4.42;100.00
55675;BME280;41562;44.330;23.802;2023-03-01T07:51:09;101240.56;;;4.35;100.00
55675;BME280;41562;44.330;23.802;2023-03-01T07:53:38;101241.97;;;4.31;100.00
55675;BME280;41562;44.330;23.802;2023-03-01T07:56:22;101246.06;;;4.27;100.00
55675;BME280;41562;44.330;23.802;2023-03-01T07:58:51;101243.19;;;4.49;100.00
55675;BME280;41562;44.330;23.802;2023-03-01T08:01:19;101240.75;;;4.47;100.00
55675;BME280;41562;44.330;23.802;2023-03-01T08:03:47;101226.88;;;4.52;100.00
55675;BME280;41562;44.330;23.802;2023-03-01T08:06:17;101230.16;;;4.47;100.00
55675;BME280;41562;44.330;23.802;2023-03-01T08:08:44;101236.47;;;4.53;100.00
55675;BME280;41562;44.330;23.802;2023-03-01T08:11:14;101235.63;;;4.59;100.00
55675;BME280;41562;44.330;23.802;2023-03-01T08:13:42;101233.38;;;4.56;100.00
55675;BME280;41562;44.330;23.802;2023-03-01T08:16:11;101228.50;;;4.66;100.00
55675;BME280;41562;44.330;23.802;2023-03-01T08:18:39;101231.28;;;4.84;100.00
55675;BME280;41562;44.330;23.802;2023-03-01T08:21:13;101231.94;;;4.73;100.00
55675;BME280;41562;44.330;23.802;2023-03-01T08:23:44;101237.41;;;4.78;100.00
55675;BME280;41562;44.330;23.802;2023-03-01T08:28:41;101232.13;;;4.78;100.00
55675;BME280;41562;44.330;23.802;2023-03-01T08:31:27;101237.41;;;4.78;100.00
55675;BME280;41562;44.330;23.802;2023-03-01T08:33:57;101234.00;;;4.51;100.00
55675;BME280;41562;44.330;23.802;2023-03-01T08:36:27;101234.81;;;4.58;100.00
55675;BME280;41562;44.330;23.802;2023-03-01T08:38:55;101230.06;;;4.87;100.00
55675;BME280;41562;44.330;23.802;2023-03-01T08:41:23;101235.16;;;4.75;100.00
55675;BME280;41562;44.330;23.802;2023-03-01T08:43:51;101233.59;;;4.67;100.00
55675;BME280;41562;44.330;23.802;2023-03-01T08:46:18;101236.59;;;4.84;100.00
55675;BME280;41562;44.330;23.802;2023-03-01T08:48:45;101236.13;;;5.00;100.00
55675;BME280;41562;44.330;23.802;2023-03-01T08:51:15;101236.59;;;4.84;100.00
55675;BME280;41562;44.330;23.802;2023-03-01T08:53:43;101233.72;;;4.92;100.00
55675;BME280;41562;44.330;23.802;2023-03-01T08:56:10;101231.25;;;4.97;100.00
55675;BME280;41562;44.330;23.802;2023-03-01T08:58:39;101224.75;;;4.93;100.00
55675;BME280;41562;44.330;23.802;2023-03-01T09:01:07;101217.44;;;4.82;100.00
55675;BME280;41562;44.330;23.802;2023-03-01T09:03:35;101222.72;;;4.82;100.00
55675;BME280;41562;44.330;23.802;2023-03-01T09:06:04;101220.94;;;4.69;100.00
55675;BME280;41562;44.330;23.802;2023-03-01T09:08:34;101217.44;;;4.82;100.00
55675;BME280;41562;44.330;23.802;2023-03-01T09:11:03;101220.25;;;4.87;100.00
55675;BME280;41562;44.330;23.802;2023-03-01T09:13:31;101216.38;;;4.90;100.00
55675;BME280;41562;44.330;23.802;2023-03-01T09:15:59;101214.09;;;5.00;100.00
55675;BME280;41562;44.330;23.802;2023-03-01T09:18:27;101214.84;;;5.13;100.00
55675;BME280;41562;44.330;23.802;2023-03-01T09:21:06;101206.75;;;5.02;100.00
55675;BME280;41562;44.330;23.802;2023-03-01T09:23:41;101206.44;;;4.85;100.00
55675;BME280;41562;44.330;23.802;2023-03-01T09:26:11;101207.22;;;4.92;100.00
55675;BME280;41562;44.330;23.802;2023-03-01T09:28:42;101204.31;;;5.00;100.00
55675;BME280;41562;44.330;23.802;2023-03-01T09:31:10;101196.16;;;5.02;100.00
55675;BME280;41562;44.330;23.802;2023-03-01T09:33:39;101200.63;;;5.01;100.00
55675;BME280;41562;44.330;23.802;2023-03-01T09:36:11;101204.31;;;5.00;100.00
55675;BME280;41562;44.330;23.802;2023-03-01T09:38:39;101197.72;;;5.16;100.00
55675;BME280;41562;44.330;23.802;2023-03-01T09:41:58;101196.13;;;5.08;100.00
55675;BME280;41562;44.330;23.802;2023-03-01T09:44:32;101190.44;;;5.05;100.00
55675;BME280;41562;44.330;23.802;2023-03-01T09:47:03;101192.28;;;5.04;100.00
55675;BME280;41562;44.330;23.802;2023-03-01T09:49:35;101180.22;;;5.08;100.00
55675;BME280;41562;44.330;23.802;2023-03-01T09:52:34;101179.44;;;5.01;100.00
55675;BME280;41562;44.330;23.802;2023-03-01T09:55:11;101175.34;;;5.05;100.00
55675;BME280;41562;44.330;23.802;2023-03-01T09:58:00;101181.66;;;5.11;100.00
55675;BME280;41562;44.330;23.802;2023-03-01T10:00:42;101183.28;;;5.12;100.00
55675;BME280;41562;44.330;23.802;2023-03-01T10:09:08;101190.38;;;5.18;100.00
55675;BME280;41562;44.330;23.802;2023-03-01T10:11:41;101187.94;;;5.16;100.00
55675;BME280;41562;44.330;23.802;2023-03-01T10:14:30;101189.56;;;5.17;100.00
55675;BME280;41562;44.330;23.802;2023-03-01T10:17:24;101182.03;;;5.14;100.00
55675;BME280;41562;44.330;23.802;2023-03-01T10:19:53;101178.13;;;5.23;100.00
55675;BME280;41562;44.330;23.802;2023-03-01T10:22:27;101176.03;;;5.25;100.00
55675;BME280;41562;44.330;23.802;2023-03-01T10:24:58;101177.59;;;5.40;100.00
55675;BME280;41562;44.330;23.802;2023-03-01T10:27:34;101167.81;;;5.40;100.00
55675;BME280;41562;44.330;23.802;2023-03-01T10:30:31;101171.88;;;5.43;100.00
55675;BME280;41562;44.330;23.802;2023-03-01T10:32:59;101164.50;;;5.45;100.00
55675;BME280;41562;44.330;23.802;2023-03-01T10:35:32;101160.28;;;5.37;100.00
55675;BME280;41562;44.330;23.802;2023-03-01T10:38:11;101168.19;;;5.44;100.00
55675;BME280;41562;44.330;23.802;2023-03-01T10:40:57;101161.00;;;5.51;100.00
55675;BME280;41562;44.330;23.802;2023-03-01T10:43:28;101155.44;;;5.28;100.00
55675;BME280;41562;44.330;23.802;2023-03-01T10:45:59;101157.75;;;5.17;100.00
55675;BME280;41562;44.330;23.802;2023-03-01T10:48:26;101149.72;;;5.31;100.00
55675;BME280;41562;44.330;23.802;2023-03-01T10:53:33;101151.38;;;5.25;100.00
55675;BME280;41562;44.330;23.802;2023-03-01T10:56:07;101146.03;;;5.32;100.00
55675;BME280;41562;44.330;23.802;2023-03-01T10:58:37;101151.84;;;5.47;100.00
55675;BME280;41562;44.330;23.802;2023-03-01T11:03:44;101130.63;;;5.47;100.00
55675;BME280;41562;44.330;23.802;2023-03-01T11:11:33;101121.50;;;5.68;100.00
55675;BME280;41562;44.330;23.802;2023-03-01T11:22:34;101112.69;;;5.49;100.00
55675;BME280;41562;44.330;23.802;2023-03-01T11:25:02;101102.28;;;5.72;100.00
55675;BME280;41562;44.330;23.802;2023-03-01T11:27:41;101107.94;;;5.51;100.00
55675;BME280;41562;44.330;23.802;2023-03-01T11:33:05;101100.38;;;5.54;100.00
55675;BME280;41562;44.330;23.802;2023-03-01T11:35:37;101093.75;;;5.63;100.00
55675;BME280;41562;44.330;23.802;2023-03-01T11:38:26;101094.31;;;5.47;100.00
55675;BME280;41562;44.330;23.802;2023-03-01T11:41:00;101087.28;;;5.59;100.00
55675;BME280;41562;44.330;23.802;2023-03-01T11:43:59;101081.00;;;5.54;100.00
55675;BME280;41562;44.330;23.802;2023-03-01T11:57:43;101063.50;;;5.71;100.00
55675;BME280;41562;44.330;23.802;2023-03-01T12:00:25;101059.66;;;5.92;100.00
55675;BME280;41562;44.330;23.802;2023-03-01T12:03:14;101051.13;;;5.83;100.00
55675;BME280;41562;44.330;23.802;2023-03-01T12:20:40;101056.94;;;5.98;100.00
55675;BME280;41562;44.330;23.802;2023-03-01T12:50:21;101040.41;;;5.96;100.00
55675;BME280;41562;44.330;23.802;2023-03-01T12:52:53;101042.59;;;5.81;100.00
55675;BME280;41562;44.330;23.802;2023-03-01T12:55:29;101038.94;;;5.76;100.00
55675;BME280;41562;44.330;23.802;2023-03-01T12:58:11;101038.03;;;5.88;100.00
55675;BME280;41562;44.330;23.802;2023-03-01T13:01:03;101030.75;;;6.02;100.00
55675;BME280;41562;44.330;23.802;2023-03-01T13:09:38;101013.44;;;5.99;100.00
55675;BME280;41562;44.330;23.802;2023-03-01T13:12:45;101020.00;;;5.97;100.00
55675;BME280;41562;44.330;23.802;2023-03-01T13:15:28;101020.38;;;6.00;100.00
55675;BME280;41562;44.330;23.802;2023-03-01T13:33:56;101008.06;;;6.06;100.00
55675;BME280;41562;44.330;23.802;2023-03-01T13:41:55;100998.41;;;5.93;100.00
55675;BME280;41562;44.330;23.802;2023-03-01T13:49:48;101005.38;;;6.24;100.00
55675;BME280;41562;44.330;23.802;2023-03-01T13:52:36;101005.53;;;6.11;100.00
55675;BME280;41562;44.330;23.802;2023-03-01T13:58:00;101001.34;;;6.03;100.00
55675;BME280;41562;44.330;23.802;2023-03-01T14:00:37;101006.19;;;6.25;100.00
55675;BME280;41562;44.330;23.802;2023-03-01T14:03:17;101002.94;;;6.23;100.00
55675;BME280;41562;44.330;23.802;2023-03-01T14:08:40;101002.31;;;6.39;100.00
55675;BME280;41562;44.330;23.802;2023-03-01T14:19:31;100977.72;;;6.32;100.00
55675;BME280;41562;44.330;23.802;2023-03-01T14:22:32;100981.63;;;6.29;100.00
55675;BME280;41562;44.330;23.802;2023-03-01T14:25:34;100978.91;;;6.18;100.00
55675;BME280;41562;44.330;23.802;2023-03-01T14:28:29;100983.53;;;6.22;100.00
55675;BME280;41562;44.330;23.802;2023-03-01T14:31:00;100986.47;;;6.32;100.00
55675;BME280;41562;44.330;23.802;2023-03-01T14:33:29;100983.50;;;6.11;100.00
55675;BME280;41562;44.330;23.802;2023-03-01T14:36:03;100980.88;;;6.22;100.00
55675;BME280;41562;44.330;23.802;2023-03-01T14:41:21;100976.38;;;6.23;100.00
55675;BME280;41562;44.330;23.802;2023-03-01T14:43:58;100975.22;;;6.19;100.00
55675;BME280;41562;44.330;23.802;2023-03-01T14:49:19;100985.22;;;6.35;100.00
55675;BME280;41562;44.330;23.802;2023-03-01T14:51:52;100978.00;;;6.24;100.00
55675;BME280;41562;44.330;23.802;2023-03-01T14:54:41;100983.84;;;6.14;100.00
55675;BME280;41562;44.330;23.802;2023-03-01T14:57:24;100972.88;;;6.11;100.00
55675;BME280;41562;44.330;23.802;2023-03-01T14:59:54;100967.69;;;6.16;100.00
55675;BME280;41562;44.330;23.802;2023-03-01T15:02:27;100974.94;;;6.09;100.00
55675;BME280;41562;44.330;23.802;2023-03-01T15:04:58;100962.69;;;6.07;100.00
55675;BME280;41562;44.330;23.802;2023-03-01T15:07:32;100967.44;;;5.87;100.00
55675;BME280;41562;44.330;23.802;2023-03-01T15:10:03;100964.97;;;6.04;100.00
55675;BME280;41562;44.330;23.802;2023-03-01T15:12:40;100964.38;;;6.02;100.00
55675;BME280;41562;44.330;23.802;2023-03-01T15:15:30;100956.47;;;6.14;100.00
55675;BME280;41562;44.330;23.802;2023-03-01T15:18:06;100949.56;;;6.13;100.00
55675;BME280;41562;44.330;23.802;2023-03-01T15:20:40;100947.78;;;6.25;100.00
55675;BME280;41562;44.330;23.802;2023-03-01T15:23:18;100950.69;;;6.05;100.00
55675;BME280;41562;44.330;23.802;2023-03-01T15:25:46;100948.03;;;6.05;100.00
55675;BME280;41562;44.330;23.802;2023-03-01T15:28:19;100952.81;;;5.96;100.00
55675;BME280;41562;44.330;23.802;2023-03-01T15:30:53;100960.91;;;6.01;100.00
55675;BME280;41562;44.330;23.802;2023-03-01T15:35:51;100955.78;;;6.07;100.00
55675;BME280;41562;44.330;23.802;2023-03-01T15:38:50;100957.44;;;6.01;100.00